To NAV CANADA Home Page Login to a new session Search on AWWS site Feedback and Comments Disclaimer Vers la page française équivalente Tips FAQ What's new on the site To the Forecasts and Observations / NOTAM section To "File a Flight Plan" website Publications and other links Update of the User's profile FIC Telephone Numbers My Weather Data Folder Route Weather Data Regional Weather Data Local Weather Data To the Forecasts and Observations / NOTAM section
Request Generated 08/22/2017 at 03:31:38 UTC . Weather information available at that time is displayed.

METAR/TAF

MEDICINE HAT/AB    (show WxCam)

METAR CYXH 220300Z 07004KT 15SM OVC270 20/04 A3011 RMK CI8 LAST STFD
OBS/NEXT 221300UTC SLP196 DENSITY ALT 3300FT=
METAR CYXH 220200Z 05002KT 30SM OVC270 22/03 A3010 RMK CI8 SLP193
DENSITY ALT 3500FT=
METAR CYXH 220100Z 32003KT 290V360 30SM BKN270 23/04 A3011 RMK CI7
SLP195 DENSITY ALT 3700FT=

TAF CYXH 212340Z 2200/2212 VRB03KT P6SM SCT280
RMK NXT FCST BY 220600Z=
Your time UTC time
Weather data provided by Environment Canada and NAV CANADA